Accueil
METAR-TAF:

METAR-TAF

Aéroports :

Aérodrome de Berbérati

Berbérati, République centrafricaine

latitude: 04-15N, longitude: 015-48E, altitude: 582 m

Observation

Le bulletin a été fait il y a 41 minutes, à 07:00 UTC
Vent 16 kt de nord-ouest
Température 23°C
Humidité 89%
Pression 1012 hPa
Visibilité: 8000 m
Quelques nuages à une hauteur de 300 ft

METAR: FEFT 090700Z 32016KT 8000 FEW003 23/21 Q1012

Heure: 08:41 (07:41 UTC)


TAF: absent

Observations et prévisions météorologiques de plus de 4000 aéroports (messages METAR et TAF).

Les stations disponibles sont représentées par des disques jaunes et rouges sur la carte.

Passer la souris dessus pour voir le nom de la station.

Cliquer dessus pour voir les observations et prévisions météorologiques.

Pour changer de carte: cliquez sur les boutons verts avec une croix noire pour zoomer, sur le bouton vert avec un tiret pour effectuer un zoom arrière, ou sur les flèches vertes pour les cartes adjacentes.


METAR-TAF: